| time (UTC) | temp C | wind direction | speed KPH | gust KPH | rain 1hr cm | rain 24hr cm | rain mn cm | humidity % | barometer mb |
| 20260906085958 | 22 | 145 | 0.0 | 0.0 | 0.00 | 0.00 | 0.00 | 95 | 1012.8 |
| 20260906085458 | 22 | 134 | 0.0 | 0.0 | 0.00 | 0.00 | 0.00 | 95 | 1012.7 |
| 20260906084957 | 22 | 141 | 0.0 | 0.0 | 0.00 | 0.00 | 0.00 | 95 | 1012.8 |
| 20260906084452 | 22 | 139 | 0.0 | 0.0 | 0.00 | 0.00 | 0.00 | 95 | 1012.8 |
| 20260906083951 | 22 | 138 | 0.0 | 0.0 | 0.00 | 0.00 | 0.00 | 95 | 1013.0 |
| 20260906083447 | 22 | 121 | 0.0 | 1.6 | 0.00 | 0.00 | 0.00 | 95 | 1012.8 |
| 20260906082945 | 22 | 52 | 0.0 | 0.0 | 0.00 | 0.00 | 0.00 | 95 | 1013.0 |
| 20260906082441 | 22 | 307 | 1.6 | 1.6 | 0.00 | 0.00 | 0.00 | 95 | 1012.8 |
| 20260906081937 | 22 | 219 | 0.0 | 0.0 | 0.00 | 0.00 | 0.00 | 95 | 1012.8 |
| 20260906081432 | 22 | 219 | 0.0 | 0.0 | 0.00 | 0.00 | 0.00 | 95 | 1012.8 |
| 20260906080928 | 22 | 221 | 1.6 | 1.6 | 0.00 | 0.00 | 0.00 | 95 | 1012.7 |
| 20260906080425 | 22 | 175 | 0.0 | 0.0 | 0.00 | 0.00 | 0.00 | 95 | 1012.6 |
| 20260906075925 | 22 | 175 | 0.0 | 0.0 | 0.00 | 0.00 | 0.00 | 95 | 1012.4 |
| 20260906075420 | 22 | 175 | 0.0 | 0.0 | 0.00 | 0.00 | 0.00 | 95 | 1012.4 |
| 20260906074915 | 22 | 175 | 0.0 | 0.0 | 0.00 | 0.00 | 0.00 | 95 | 1012.8 |
| 20260906074414 | 22 | 159 | 0.0 | 0.0 | 0.00 | 0.00 | 0.00 | 94 | 1012.5 |
| 20260906073913 | 22 | 159 | 0.0 | 0.0 | 0.00 | 0.00 | 0.00 | 94 | 1012.4 |
| 20260906073408 | 22 | 159 | 0.0 | 0.0 | 0.00 | 0.00 | 0.00 | 94 | 1012.5 |
| 20260906072905 | 22 | 117 | 0.0 | 0.0 | 0.00 | 0.00 | 0.00 | 94 | 1012.7 |
| 20260906072400 | 22 | 116 | 0.0 | 0.0 | 0.00 | 0.00 | 0.00 | 93 | 1012.3 |
| 20260906071856 | 23 | 97 | 0.0 | 0.0 | 0.00 | 0.00 | 0.00 | 93 | 1012.8 |
| 20260906071351 | 23 | 105 | 1.6 | 1.6 | 0.00 | 0.00 | 0.00 | 93 | 1012.8 |
| 20260906070847 | 23 | 41 | 1.6 | 3.2 | 0.00 | 0.00 | 0.00 | 94 | 1012.7 |
| 20260906070343 | 22 | 354 | 3.2 | 3.2 | 0.00 | 0.00 | 0.00 | 95 | 1012.8 |
| 20260906065838 | 22 | 160 | 0.0 | 0.0 | 0.00 | 0.00 | 0.00 | 95 | 1012.6 |
| 20260906065332 | 22 | 159 | 0.0 | 0.0 | 0.00 | 0.00 | 0.00 | 94 | 1012.6 |
| 20260906064828 | 23 | 196 | 3.2 | 3.2 | 0.00 | 0.00 | 0.00 | 94 | 1012.8 |
| 20260906064325 | 23 | 226 | 0.0 | 1.6 | 0.00 | 0.00 | 0.00 | 94 | 1012.7 |
| 20260906063824 | 23 | 249 | 1.6 | 1.6 | 0.00 | 0.00 | 0.00 | 95 | 1012.6 |
| 20260906063320 | 22 | 104 | 1.6 | 1.6 | 0.00 | 0.00 | 0.00 | 96 | 1012.4 |
| 20260906062815 | 22 | 193 | 1.6 | 1.6 | 0.00 | 0.00 | 0.00 | 96 | 1012.5 |
| 20260906062314 | 22 | 188 | 0.0 | 0.0 | 0.00 | 0.00 | 0.00 | 96 | 1012.8 |
| 20260906061809 | 22 | 187 | 1.6 | 1.6 | 0.00 | 0.00 | 0.00 | 95 | 1012.9 |
| 20260906061306 | 23 | 188 | 3.2 | 3.2 | 0.00 | 0.00 | 0.00 | 95 | 1012.9 |
| 20260906060801 | 23 | 174 | 3.2 | 3.2 | 0.00 | 0.00 | 0.00 | 94 | 1013.3 |
| 20260906060258 | 23 | 104 | 0.0 | 0.0 | 0.00 | 0.00 | 0.00 | 94 | 1013.2 |
| 20260906055754 | 23 | 103 | 0.0 | 0.0 | 0.00 | 0.00 | 0.00 | 94 | 1013.3 |
| 20260906055249 | 23 | 88 | 1.6 | 1.6 | 0.00 | 0.00 | 0.00 | 94 | 1013.4 |
| 20260906054744 | 23 | 182 | 1.6 | 1.6 | 0.00 | 0.00 | 0.00 | 94 | 1013.5 |
| 20260906054239 | 23 | 182 | 1.6 | 1.6 | 0.00 | 0.00 | 0.00 | 94 | 1013.6 |
| 20260906053736 | 23 | 183 | 1.6 | 1.6 | 0.00 | 0.00 | 0.00 | 94 | 1013.7 |
| 20260906053232 | 23 | 181 | 0.0 | 0.0 | 0.00 | 0.00 | 0.00 | 93 | 1013.7 |
| 20260906052726 | 23 | 80 | 0.0 | 0.0 | 0.00 | 0.00 | 0.00 | 93 | 1013.8 |
| 20260906052223 | 23 | 243 | 0.0 | 1.6 | 0.00 | 0.00 | 0.00 | 94 | 1013.7 |
| 20260906051720 | 23 | 137 | 0.0 | 0.0 | 0.00 | 0.00 | 0.00 | 94 | 1013.6 |
| 20260906051219 | 23 | 100 | 0.0 | 1.6 | 0.00 | 0.00 | 0.00 | 94 | 1013.6 |
| 20260906050714 | 23 | 47 | 1.6 | 3.2 | 0.00 | 0.00 | 0.00 | 93 | 1013.7 |
| 20260906050209 | 23 | 220 | 0.0 | 0.0 | 0.00 | 0.00 | 0.00 | 94 | 1013.8 |
| 20260906045708 | 23 | 216 | 1.6 | 1.6 | 0.00 | 0.00 | 0.00 | 94 | 1013.9 |
| 20260906045203 | 23 | 215 | 0.0 | 0.0 | 0.00 | 0.00 | 0.00 | 94 | 1013.7 |
| 20260906044659 | 23 | 214 | 0.0 | 0.0 | 0.00 | 0.00 | 0.00 | 94 | 1013.9 |
| 20260906044154 | 23 | 215 | 0.0 | 0.0 | 0.00 | 0.00 | 0.00 | 94 | 1013.9 |
| 20260906043650 | 23 | 200 | 0.0 | 0.0 | 0.00 | 0.00 | 0.00 | 94 | 1014.0 |
| 20260906043145 | 23 | 176 | 0.0 | 1.6 | 0.00 | 0.00 | 0.00 | 94 | 1013.7 |
| 20260906042645 | 23 | 164 | 1.6 | 1.6 | 0.00 | 0.00 | 0.00 | 93 | 1013.7 |
| 20260906042144 | 23 | 165 | 1.6 | 1.6 | 0.00 | 0.00 | 0.00 | 93 | 1013.5 |
| 20260906041640 | 24 | 160 | 1.6 | 1.6 | 0.00 | 0.00 | 0.00 | 92 | 1013.8 |
| 20260906041135 | 24 | 195 | 0.0 | 1.6 | 0.00 | 0.00 | 0.00 | 91 | 1013.6 |
| 20260906040631 | 24 | 275 | 3.2 | 3.2 | 0.00 | 0.00 | 0.00 | 92 | 1014.0 |
| 20260906040126 | 23 | 242 | 1.6 | 1.6 | 0.00 | 0.00 | 0.00 | 95 | 1013.8 |
| 20260906035621 | 23 | 257 | 1.6 | 1.6 | 0.00 | 0.03 | 0.03 | 96 | 1013.7 |
| 20260906035117 | 23 | 175 | 0.0 | 0.0 | 0.00 | 0.03 | 0.03 | 96 | 1013.7 |
| 20260906034617 | 23 | 174 | 0.0 | 0.0 | 0.00 | 0.03 | 0.03 | 95 | 1014.1 |
| 20260906034112 | 23 | 174 | 1.6 | 3.2 | 0.00 | 0.03 | 0.03 | 95 | 1014.1 |
| 20260906033608 | 23 | 222 | 0.0 | 0.0 | 0.00 | 0.03 | 0.03 | 95 | 1014.0 |
| 20260906033103 | 23 | 245 | 1.6 | 1.6 | 0.00 | 0.03 | 0.03 | 95 | 1014.1 |
| 20260906032600 | 23 | 190 | 0.0 | 0.0 | 0.00 | 0.03 | 0.03 | 95 | 1014.2 |
| 20260906032059 | 23 | 190 | 1.6 | 1.6 | 0.00 | 0.03 | 0.03 | 95 | 1014.2 |
| 20260906031554 | 23 | 167 | 1.6 | 3.2 | 0.00 | 0.03 | 0.03 | 95 | 1014.1 |
| 20260906031050 | 23 | 179 | 1.6 | 1.6 | 0.00 | 0.03 | 0.03 | 95 | 1014.0 |
| 20260906030549 | 24 | 170 | 1.6 | 1.6 | 0.00 | 0.03 | 0.03 | 95 | 1014.1 |
| 20260906030049 | 24 | 160 | 3.2 | 3.2 | 0.00 | 0.03 | 0.03 | 95 | 1013.9 |
| 20260906025549 | 24 | 164 | 4.8 | 8.0 | 0.00 | 0.03 | 0.03 | 94 | 1014.0 |
| 20260906025047 | 24 | 185 | 3.2 | 4.8 | 0.00 | 0.03 | 0.03 | 94 | 1014.0 |
| 20260906024543 | 24 | 147 | 8.0 | 8.0 | 0.00 | 0.03 | 0.03 | 93 | 1014.0 |
| 20260906024043 | 24 | 167 | 1.6 | 1.6 | 0.00 | 0.03 | 0.03 | 93 | 1013.6 |
| 20260906023539 | 25 | 182 | 1.6 | 3.2 | 0.00 | 0.03 | 0.03 | 93 | 1013.5 |
| 20260906023034 | 25 | 221 | 1.6 | 1.6 | 0.00 | 0.03 | 0.03 | 92 | 1013.7 |
| 20260906022529 | 25 | 219 | 0.0 | 1.6 | 0.00 | 0.03 | 0.03 | 93 | 1013.5 |
| 20260906022024 | 25 | 296 | 4.8 | 4.8 | 0.00 | 0.03 | 0.03 | 94 | 1013.6 |
| 20260906021520 | 25 | 297 | 4.8 | 4.8 | 0.00 | 0.03 | 0.03 | 94 | 1013.9 |
| 20260906021014 | 24 | 247 | 1.6 | 1.6 | 0.00 | 0.03 | 0.03 | 95 | 1013.8 |
| 20260906020513 | 24 | 320 | 0.0 | 0.0 | 0.00 | 0.03 | 0.03 | 95 | 1013.8 |
| 20260906020013 | 24 | 223 | 1.6 | 1.6 | 0.00 | 0.03 | 0.03 | 95 | 1013.9 |
| 20260906015512 | 24 | 165 | 0.0 | 0.0 | 0.00 | 0.03 | 0.03 | 94 | 1013.8 |
| 20260906015012 | 24 | 164 | 1.6 | 3.2 | 0.00 | 0.03 | 0.03 | 94 | 1013.9 |
| 20260906014507 | 25 | 166 | 3.2 | 3.2 | 0.00 | 0.03 | 0.03 | 93 | 1013.9 |
| 20260906014003 | 25 | 214 | 1.6 | 1.6 | 0.00 | 0.03 | 0.03 | 93 | 1014.0 |
| 20260906013458 | 25 | 213 | 1.6 | 3.2 | 0.00 | 0.03 | 0.03 | 92 | 1013.8 |
| 20260906012954 | 25 | 166 | 3.2 | 3.2 | 0.00 | 0.03 | 0.03 | 91 | 1013.9 |
| 20260906012449 | 25 | 186 | 1.6 | 1.6 | 0.00 | 0.03 | 0.03 | 89 | 1013.9 |
| 20260906011948 | 25 | 150 | 4.8 | 4.8 | 0.00 | 0.03 | 0.03 | 88 | 1014.1 |
| 20260906011444 | 25 | 176 | 4.8 | 4.8 | 0.00 | 0.03 | 0.03 | 84 | 1013.9 |
| 20260906010939 | 25 | 148 | 1.6 | 1.6 | 0.00 | 0.03 | 0.03 | 83 | 1013.6 |
| 20260906010434 | 25 | 156 | 1.6 | 1.6 | 0.00 | 0.03 | 0.03 | 82 | 1013.3 |
| 20260906005930 | 25 | 191 | 1.6 | 1.6 | 0.00 | 0.03 | 0.03 | 82 | 1013.7 |
| 20260906005429 | 26 | 172 | 1.6 | 1.6 | 0.00 | 0.03 | 0.03 | 80 | 1013.5 |
| 20260906004927 | 26 | 136 | 1.6 | 3.2 | 0.00 | 0.03 | 0.03 | 78 | 1013.2 |
| 20260906004422 | 26 | 7 | 1.6 | 1.6 | 0.00 | 0.03 | 0.03 | 78 | 1013.0 |
| 20260906003918 | 26 | 344 | 4.8 | 8.0 | 0.00 | 0.03 | 0.03 | 77 | 1013.1 |
| 20260906003413 | 26 | 341 | 6.4 | 8.0 | 0.00 | 0.03 | 0.03 | 76 | 1012.7 |
| 20260906002908 | 26 | 155 | 1.6 | 1.6 | 0.00 | 0.03 | 0.03 | 75 | 1012.5 |
| 20260906002408 | 26 | 342 | 4.8 | 4.8 | 0.00 | 0.03 | 0.03 | 76 | 1012.3 |
| 20260906001903 | 27 | 100 | 1.6 | 1.6 | 0.00 | 0.03 | 0.03 | 75 | 1012.1 |
| 20260906001359 | 27 | 81 | 1.6 | 3.2 | 0.00 | 0.03 | 0.03 | 77 | 1012.4 |
| 20260906000859 | 27 | 131 | 0.0 | 0.0 | 0.00 | 0.03 | 0.03 | 75 | 1012.5 |
| 20260906000359 | 26 | 69 | 1.6 | 1.6 | 0.00 | 0.03 | 0.03 | 74 | 1012.5 |
| 20260905235855 | 26 | 168 | 0.0 | 0.0 | 0.00 | 0.03 | 0.03 | 84 | 1012.9 |
| 20260905235349 | 26 | 185 | 0.0 | 0.0 | 0.00 | 0.03 | 0.03 | 85 | 1012.6 |
| 20260905234844 | 27 | 184 | 0.0 | 0.0 | 0.00 | 0.03 | 0.03 | 84 | 1012.9 |
| 20260905234339 | 27 | 179 | 0.0 | 0.0 | 0.00 | 0.03 | 0.03 | 84 | 1012.7 |
| 20260905233834 | 27 | 190 | 0.0 | 1.6 | 0.00 | 0.03 | 0.03 | 83 | 1012.7 |
| 20260905233329 | 27 | 214 | 1.6 | 3.2 | 0.00 | 0.03 | 0.03 | 83 | 1012.9 |
| 20260905232828 | 27 | 296 | 4.8 | 4.8 | 0.00 | 0.03 | 0.03 | 83 | 1013.0 |
| 20260905232325 | 27 | 267 | 4.8 | 4.8 | 0.00 | 0.03 | 0.03 | 82 | 1012.9 |
| 20260905231820 | 27 | 183 | 1.6 | 1.6 | 0.00 | 0.03 | 0.03 | 80 | 1012.9 |
| 20260905231315 | 28 | 190 | 1.6 | 3.2 | 0.00 | 0.03 | 0.03 | 78 | 1012.8 |
| 20260905230811 | 28 | 184 | 8.0 | 11.3 | 0.00 | 0.03 | 0.03 | 74 | 1012.9 |
| 20260905230309 | 28 | 193 | 4.8 | 4.8 | 0.00 | 0.03 | 0.03 | 69 | 1012.8 |
| 20260905225809 | 28 | 180 | 3.2 | 3.2 | 0.00 | 0.03 | 0.03 | 69 | 1012.7 |
| 20260905225306 | 28 | 138 | 3.2 | 3.2 | 0.00 | 0.03 | 0.03 | 67 | 1012.6 |
| 20260905224803 | 28 | 174 | 0.0 | 1.6 | 0.00 | 0.03 | 0.03 | 69 | 1012.7 |
| 20260905224259 | 28 | 34 | 4.8 | 4.8 | 0.00 | 0.03 | 0.03 | 70 | 1012.6 |
| 20260905223755 | 28 | 63 | 1.6 | 3.2 | 0.00 | 0.03 | 0.03 | 69 | 1012.5 |
| 20260905223252 | 28 | 75 | 4.8 | 8.0 | 0.00 | 0.03 | 0.03 | 69 | 1012.6 |
| 20260905222747 | 28 | 79 | 4.8 | 4.8 | 0.00 | 0.03 | 0.03 | 68 | 1012.5 |
| 20260905222246 | 28 | 108 | 6.4 | 8.0 | 0.00 | 0.03 | 0.03 | 68 | 1012.6 |
| 20260905221742 | 28 | 55 | 6.4 | 8.0 | 0.00 | 0.03 | 0.03 | 67 | 1012.8 |
| 20260905221239 | 29 | 33 | 4.8 | 8.0 | 0.00 | 0.03 | 0.03 | 69 | 1012.8 |
| 20260905220734 | 28 | 5 | 4.8 | 4.8 | 0.00 | 0.03 | 0.03 | 72 | 1012.9 |
| 20260905220230 | 28 | 351 | 4.8 | 4.8 | 0.00 | 0.03 | 0.03 | 71 | 1012.7 |
| 20260905215729 | 29 | 29 | 3.2 | 3.2 | 0.00 | 0.03 | 0.03 | 70 | 1012.8 |
| 20260905215225 | 29 | 348 | 4.8 | 8.0 | 0.00 | 0.03 | 0.03 | 70 | 1012.5 |
| 20260905214721 | 29 | 34 | 3.2 | 3.2 | 0.00 | 0.03 | 0.03 | 70 | 1012.3 |
| 20260905214216 | 30 | 24 | 4.8 | 4.8 | 0.00 | 0.03 | 0.03 | 68 | 1012.6 |
| 20260905213712 | 30 | 53 | 3.2 | 4.8 | 0.00 | 0.03 | 0.03 | 68 | 1012.5 |
| 20260905213208 | 29 | 63 | 1.6 | 1.6 | 0.00 | 0.03 | 0.03 | 70 | 1012.5 |
| 20260905212702 | 28 | 219 | 0.0 | 0.0 | 0.00 | 0.03 | 0.03 | 74 | 1012.5 |
| 20260905212201 | 28 | 263 | 3.2 | 4.8 | 0.00 | 0.03 | 0.03 | 75 | 1012.7 |
| 20260905211656 | 28 | 185 | 1.6 | 1.6 | 0.00 | 0.03 | 0.03 | 76 | 1013.1 |
| 20260905211152 | 28 | 182 | 3.2 | 3.2 | 0.00 | 0.03 | 0.03 | 74 | 1012.8 |
| 20260905210648 | 28 | 201 | 1.6 | 1.6 | 0.00 | 0.03 | 0.03 | 73 | 1012.8 |
| 20260905210148 | 28 | 175 | 3.2 | 4.8 | 0.00 | 0.03 | 0.03 | 72 | 1013.1 |
| 20260905205648 | 28 | 160 | 4.8 | 4.8 | 0.00 | 0.03 | 0.03 | 71 | 1013.2 |
| 20260905205147 | 28 | 175 | 1.6 | 1.6 | 0.00 | 0.03 | 0.03 | 75 | 1013.5 |
| 20260905204646 | 27 | 290 | 4.8 | 4.8 | 0.00 | 0.03 | 0.03 | 74 | 1013.6 |
| 20260905204142 | 27 | 163 | 4.8 | 4.8 | 0.00 | 0.03 | 0.03 | 77 | 1013.4 |
| 20260905203636 | 28 | 171 | 6.4 | 9.7 | 0.00 | 0.03 | 0.03 | 77 | 1013.3 |
| 20260905203132 | 28 | 247 | 4.8 | 4.8 | 0.00 | 0.03 | 0.03 | 76 | 1013.4 |
| 20260905202627 | 28 | 168 | 6.4 | 8.0 | 0.00 | 0.03 | 0.03 | 74 | 1013.5 |
| 20260905202122 | 28 | 153 | 6.4 | 8.0 | 0.00 | 0.03 | 0.03 | 77 | 1014.1 |
| 20260905201618 | 28 | 167 | 8.0 | 11.3 | 0.00 | 0.03 | 0.03 | 77 | 1014.5 |
| 20260905201117 | 29 | 178 | 6.4 | 9.7 | 0.00 | 0.03 | 0.03 | 72 | 1014.5 |
| 20260905200613 | 29 | 295 | 6.4 | 9.7 | 0.13 | 0.03 | 0.03 | 67 | 1014.2 |
| 20260905200109 | 30 | 13 | 3.2 | 4.8 | 0.13 | 0.03 | 0.03 | 70 | 1014.0 |
| 20260905195607 | 30 | 47 | 3.2 | 4.8 | 0.00 | 0.00 | 0.00 | 68 | 1013.8 |
| 20260905195103 | 31 | 335 | 4.8 | 9.7 | 0.00 | 0.00 | 0.00 | 65 | 1013.9 |
| 20260905194602 | 31 | 66 | 8.0 | 14.5 | 0.00 | 0.00 | 0.00 | 60 | 1013.6 |
| 20260905194101 | 33 | 2 | 12.9 | 16.1 | 0.00 | 0.00 | 0.00 | 52 | 1013.4 |
| 20260905193556 | 35 | 357 | 12.9 | 14.5 | 0.00 | 0.00 | 0.00 | 48 | 1012.8 |
| 20260905193051 | 35 | 316 | 4.8 | 4.8 | 0.00 | 0.00 | 0.00 | 45 | 1012.8 |
| 20260905192548 | 35 | 6 | 4.8 | 4.8 | 0.00 | 0.00 | 0.00 | 44 | 1012.5 |
| 20260905192044 | 35 | 332 | 3.2 | 3.2 | 0.00 | 0.00 | 0.00 | 42 | 1012.5 |
| 20260905191542 | 36 | 50 | 4.8 | 8.0 | 0.00 | 0.00 | 0.00 | 41 | 1012.8 |
| 20260905191041 | 36 | 319 | 4.8 | 4.8 | 0.00 | 0.00 | 0.00 | 42 | 1012.7 |
| 20260905190539 | 36 | 255 | 9.7 | 11.3 | 0.00 | 0.00 | 0.00 | 41 | 1012.6 |
| 20260905190033 | 37 | 15 | 6.4 | 9.7 | 0.00 | 0.00 | 0.00 | 39 | 1012.7 |
| 20260905185533 | 37 | 207 | 1.6 | 1.6 | 0.00 | 0.00 | 0.00 | 41 | 1012.6 |
| 20260905185033 | 36 | 131 | 3.2 | 3.2 | 0.00 | 0.00 | 0.00 | 40 | 1012.6 |
| 20260905184532 | 36 | 329 | 9.7 | 11.3 | 0.00 | 0.00 | 0.00 | 42 | 1012.7 |
| 20260905184032 | 36 | 270 | 9.7 | 12.9 | 0.00 | 0.00 | 0.00 | 42 | 1012.9 |
| 20260905183531 | 35 | 30 | 3.2 | 3.2 | 0.00 | 0.00 | 0.00 | 45 | 1013.1 |
| 20260905183027 | 35 | 59 | 6.4 | 8.0 | 0.00 | 0.00 | 0.00 | 44 | 1012.8 |
| 20260905182526 | 35 | 72 | 4.8 | 4.8 | 0.00 | 0.00 | 0.00 | 44 | 1013.0 |
| 20260905182026 | 36 | 296 | 4.8 | 4.8 | 0.00 | 0.00 | 0.00 | 44 | 1013.1 |
| 20260905181521 | 36 | 147 | 4.8 | 4.8 | 0.00 | 0.00 | 0.00 | 45 | 1013.1 |
| 20260905181021 | 36 | 23 | 4.8 | 4.8 | 0.00 | 0.00 | 0.00 | 44 | 1013.2 |
| 20260905180516 | 36 | 263 | 4.8 | 8.0 | 0.00 | 0.00 | 0.00 | 45 | 1013.3 |
| 20260905180011 | 35 | 273 | 4.8 | 8.0 | 0.00 | 0.00 | 0.00 | 46 | 1013.4 |
| 20260905175510 | 35 | 298 | 11.3 | 11.3 | 0.00 | 0.00 | 0.00 | 46 | 1013.5 |
| 20260905175006 | 35 | 289 | 8.0 | 9.7 | 0.00 | 0.00 | 0.00 | 46 | 1013.5 |
| 20260905174501 | 35 | 263 | 6.4 | 8.0 | 0.00 | 0.00 | 0.00 | 45 | 1013.7 |
| 20260905173957 | 36 | 298 | 8.0 | 9.7 | 0.00 | 0.00 | 0.00 | 45 | 1013.6 |
| 20260905173453 | 35 | 189 | 1.6 | 1.6 | 0.00 | 0.00 | 0.00 | 45 | 1013.6 |
| 20260905172948 | 35 | 336 | 8.0 | 11.3 | 0.00 | 0.00 | 0.00 | 46 | 1013.6 |
| 20260905172446 | 35 | 195 | 4.8 | 4.8 | 0.00 | 0.00 | 0.00 | 46 | 1013.9 |
| 20260905171942 | 35 | 163 | 6.4 | 9.7 | 0.00 | 0.00 | 0.00 | 48 | 1013.5 |
| 20260905171438 | 35 | 19 | 6.4 | 8.0 | 0.00 | 0.00 | 0.00 | 48 | 1013.6 |
| 20260905170934 | 36 | 119 | 4.8 | 8.0 | 0.00 | 0.00 | 0.00 | 47 | 1013.7 |
| 20260905170430 | 35 | 285 | 4.8 | 9.7 | 0.00 | 0.00 | 0.00 | 49 | 1013.5 |
| 20260905165930 | 35 | 208 | 1.6 | 1.6 | 0.00 | 0.00 | 0.00 | 47 | 1013.8 |
| 20260905165425 | 35 | 127 | 4.8 | 4.8 | 0.00 | 0.00 | 0.00 | 50 | 1014.2 |
| 20260905164920 | 36 | 38 | 4.8 | 8.0 | 0.00 | 0.00 | 0.00 | 48 | 1014.2 |
| 20260905164420 | 36 | 146 | 1.6 | 3.2 | 0.00 | 0.00 | 0.00 | 46 | 1014.4 |
| 20260905163915 | 35 | 349 | 4.8 | 8.0 | 0.00 | 0.00 | 0.00 | 49 | 1014.6 |
| 20260905163412 | 35 | 13 | 6.4 | 8.0 | 0.00 | 0.00 | 0.00 | 50 | 1014.5 |
| 20260905162908 | 34 | 136 | 6.4 | 8.0 | 0.00 | 0.00 | 0.00 | 52 | 1014.8 |
| 20260905162408 | 34 | 127 | 3.2 | 4.8 | 0.00 | 0.00 | 0.00 | 51 | 1014.6 |
| 20260905161903 | 35 | 266 | 4.8 | 4.8 | 0.00 | 0.00 | 0.00 | 51 | 1014.8 |
| 20260905161402 | 33 | 103 | 6.4 | 8.0 | 0.00 | 0.00 | 0.00 | 55 | 1014.9 |
| 20260905160900 | 34 | 329 | 3.2 | 3.2 | 0.00 | 0.00 | 0.00 | 52 | 1014.7 |
| 20260905160354 | 33 | 31 | 4.8 | 4.8 | 0.00 | 0.00 | 0.00 | 55 | 1015.0 |
| 20260905155849 | 33 | 329 | 4.8 | 8.0 | 0.00 | 0.00 | 0.00 | 55 | 1015.0 |
| 20260905155348 | 33 | 347 | 6.4 | 9.7 | 0.00 | 0.00 | 0.00 | 56 | 1014.9 |
| 20260905154847 | 33 | 45 | 11.3 | 12.9 | 0.00 | 0.00 | 0.00 | 56 | 1015.3 |
| 20260905154343 | 33 | 32 | 4.8 | 8.0 | 0.00 | 0.00 | 0.00 | 55 | 1015.0 |
| 20260905153838 | 33 | 303 | 4.8 | 4.8 | 0.00 | 0.00 | 0.00 | 56 | 1015.0 |
| 20260905153335 | 33 | 352 | 4.8 | 4.8 | 0.00 | 0.00 | 0.00 | 57 | 1015.2 |
| 20260905152834 | 33 | 117 | 1.6 | 1.6 | 0.00 | 0.00 | 0.00 | 56 | 1015.4 |
| 20260905152333 | 33 | 310 | 6.4 | 8.0 | 0.00 | 0.00 | 0.00 | 56 | 1015.0 |
| 20260905151829 | 33 | 90 | 1.6 | 3.2 | 0.00 | 0.00 | 0.00 | 56 | 1015.4 |
| 20260905151325 | 32 | 47 | 3.2 | 3.2 | 0.00 | 0.00 | 0.00 | 59 | 1015.3 |
| 20260905150824 | 33 | 247 | 4.8 | 8.0 | 0.00 | 0.00 | 0.00 | 56 | 1015.3 |
| 20260905150319 | 33 | 21 | 4.8 | 4.8 | 0.00 | 0.00 | 0.00 | 56 | 1015.4 |
| 20260905145817 | 33 | 144 | 0.0 | 0.0 | 0.00 | 0.00 | 0.00 | 55 | 1015.2 |
| 20260905145316 | 32 | 179 | 0.0 | 0.0 | 0.00 | 0.00 | 0.00 | 61 | 1015.5 |
| 20260905144815 | 32 | 129 | 3.2 | 3.2 | 0.00 | 0.00 | 0.00 | 63 | 1015.5 |
| 20260905144311 | 32 | 136 | 3.2 | 3.2 | 0.00 | 0.00 | 0.00 | 62 | 1015.2 |
| 20260905143809 | 33 | 181 | 3.2 | 3.2 | 0.00 | 0.00 | 0.00 | 59 | 1015.4 |
| 20260905143259 | 32 | 162 | 1.6 | 1.6 | 0.00 | 0.00 | 0.00 | 61 | 1015.5 |
| 20260905142757 | 32 | 169 | 0.0 | 1.6 | 0.00 | 0.00 | 0.00 | 61 | 1015.4 |
| 20260905142252 | 31 | 256 | 3.2 | 3.2 | 0.00 | 0.00 | 0.00 | 64 | 1015.5 |
| 20260905141748 | 30 | 320 | 3.2 | 3.2 | 0.00 | 0.00 | 0.00 | 67 | 1015.6 |
| 20260905141244 | 30 | 213 | 1.6 | 1.6 | 0.00 | 0.00 | 0.00 | 68 | 1015.7 |
| 20260905140739 | 31 | 277 | 4.8 | 8.0 | 0.00 | 0.00 | 0.00 | 67 | 1015.7 |
| 20260905140239 | 30 | 185 | 1.6 | 1.6 | 0.00 | 0.00 | 0.00 | 69 | 1015.7 |
| 20260905135737 | 30 | 257 | 3.2 | 3.2 | 0.00 | 0.00 | 0.00 | 69 | 1015.7 |
| 20260905135234 | 30 | 119 | 3.2 | 3.2 | 0.00 | 0.00 | 0.00 | 70 | 1015.8 |
| 20260905134733 | 29 | 350 | 1.6 | 3.2 | 0.00 | 0.00 | 0.00 | 71 | 1015.9 |
| 20260905134232 | 30 | 338 | 4.8 | 4.8 | 0.00 | 0.00 | 0.00 | 71 | 1015.9 |
| 20260905133727 | 30 | 307 | 3.2 | 4.8 | 0.00 | 0.00 | 0.00 | 69 | 1015.6 |
| 20260905133223 | 29 | 128 | 1.6 | 3.2 | 0.00 | 0.00 | 0.00 | 71 | 1015.8 |
| 20260905132721 | 28 | 180 | 1.6 | 1.6 | 0.00 | 0.00 | 0.00 | 72 | 1015.9 |
| 20260905132217 | 28 | 259 | 1.6 | 1.6 | 0.00 | 0.00 | 0.00 | 73 | 1015.7 |
| 20260905131712 | 28 | 261 | 1.6 | 1.6 | 0.00 | 0.00 | 0.00 | 74 | 1015.8 |
| 20260905131208 | 29 | 91 | 1.6 | 3.2 | 0.00 | 0.00 | 0.00 | 73 | 1015.7 |
| 20260905130707 | 28 | 200 | 0.0 | 0.0 | 0.00 | 0.00 | 0.00 | 74 | 1015.7 |
| 20260905130202 | 27 | 201 | 0.0 | 1.6 | 0.00 | 0.00 | 0.00 | 78 | 1015.5 |
| 20260905125702 | 27 | 192 | 0.0 | 1.6 | 0.00 | 0.00 | 0.00 | 78 | 1015.7 |
| 20260905125157 | 27 | 189 | 0.0 | 0.0 | 0.00 | 0.00 | 0.00 | 79 | 1015.7 |
| 20260905124654 | 26 | 191 | 0.0 | 0.0 | 0.00 | 0.00 | 0.00 | 81 | 1015.6 |
| 20260905124149 | 26 | 239 | 1.6 | 1.6 | 0.00 | 0.00 | 0.00 | 82 | 1015.8 |
| 20260905123644 | 26 | 211 | 1.6 | 1.6 | 0.00 | 0.00 | 0.00 | 82 | 1015.6 |
| 20260905123142 | 26 | 243 | 1.6 | 1.6 | 0.00 | 0.00 | 0.00 | 83 | 1015.9 |
| 20260905122641 | 25 | 125 | 1.6 | 1.6 | 0.00 | 0.00 | 0.00 | 83 | 1015.8 |
| 20260905122136 | 25 | 89 | 1.6 | 1.6 | 0.00 | 0.00 | 0.00 | 84 | 1015.8 |
| 20260905121630 | 25 | 85 | 1.6 | 1.6 | 0.00 | 0.00 | 0.00 | 86 | 1015.9 |
| 20260905121126 | 24 | 188 | 0.0 | 1.6 | 0.00 | 0.00 | 0.00 | 88 | 1015.5 |
| 20260905120625 | 24 | 251 | 3.2 | 3.2 | 0.00 | 0.00 | 0.00 | 89 | 1015.7 |
| 20260905120120 | 23 | 226 | 1.6 | 1.6 | 0.00 | 0.00 | 0.00 | 91 | 1015.4 |
| 20260905115619 | 23 | 221 | 0.0 | 1.6 | 0.00 | 0.00 | 0.00 | 92 | 1015.2 |
| 20260905115114 | 23 | 222 | 0.0 | 0.0 | 0.00 | 0.00 | 0.00 | 92 | 1015.6 |
| 20260905114614 | 23 | 222 | 1.6 | 1.6 | 0.00 | 0.00 | 0.00 | 92 | 1015.5 |
| 20260905114113 | 23 | 203 | 0.0 | 0.0 | 0.00 | 0.00 | 0.00 | 93 | 1015.0 |
| 20260905113608 | 23 | 200 | 0.0 | 0.0 | 0.00 | 0.00 | 0.00 | 93 | 1015.4 |
| 20260905113103 | 23 | 200 | 0.0 | 0.0 | 0.00 | 0.00 | 0.00 | 93 | 1014.9 |
| 20260905112558 | 22 | 200 | 0.0 | 0.0 | 0.00 | 0.00 | 0.00 | 93 | 1015.2 |
| 20260905112054 | 22 | 200 | 0.0 | 0.0 | 0.00 | 0.00 | 0.00 | 93 | 1014.8 |
| 20260905111548 | 23 | 200 | 0.0 | 0.0 | 0.00 | 0.00 | 0.00 | 93 | 1014.8 |
| 20260905111048 | 23 | 200 | 0.0 | 0.0 | 0.00 | 0.00 | 0.00 | 92 | 1014.8 |
| 20260905110547 | 23 | 199 | 0.0 | 0.0 | 0.00 | 0.00 | 0.00 | 92 | 1014.7 |
| 20260905110042 | 23 | 199 | 1.6 | 1.6 | 0.00 | 0.00 | 0.00 | 91 | 1014.7 |
| 20260905105542 | 23 | 198 | 0.0 | 0.0 | 0.00 | 0.00 | 0.00 | 90 | 1014.5 |
| 20260905105041 | 23 | 269 | 1.6 | 1.6 | 0.00 | 0.00 | 0.00 | 89 | 1014.7 |
| 20260905104538 | 23 | 264 | 1.6 | 1.6 | 0.00 | 0.00 | 0.00 | 91 | 1014.5 |
| 20260905104037 | 23 | 239 | 1.6 | 1.6 | 0.00 | 0.00 | 0.00 | 91 | 1014.5 |
| 20260905103532 | 23 | 307 | 0.0 | 0.0 | 0.00 | 0.00 | 0.00 | 92 | 1014.7 |
| 20260905103028 | 23 | 307 | 0.0 | 0.0 | 0.00 | 0.00 | 0.00 | 91 | 1014.4 |
| 20260905102524 | 23 | 307 | 0.0 | 0.0 | 0.00 | 0.00 | 0.00 | 91 | 1014.5 |
| 20260905102020 | 23 | 304 | 0.0 | 0.0 | 0.00 | 0.00 | 0.00 | 91 | 1014.4 |
| 20260905101519 | 23 | 268 | 1.6 | 1.6 | 0.00 | 0.00 | 0.00 | 91 | 1014.5 |
| 20260905101017 | 23 | 211 | 0.0 | 0.0 | 0.00 | 0.00 | 0.00 | 91 | 1014.5 |
| 20260905100514 | 23 | 212 | 0.0 | 0.0 | 0.00 | 0.00 | 0.00 | 92 | 1014.5 |
| 20260905100013 | 23 | 212 | 0.0 | 0.0 | 0.00 | 0.00 | 0.00 | 91 | 1014.5 |
| 20260905095508 | 23 | 212 | 0.0 | 0.0 | 0.00 | 0.00 | 0.00 | 90 | 1014.7 |
| 20260905095003 | 23 | 212 | 0.0 | 0.0 | 0.00 | 0.00 | 0.00 | 90 | 1014.7 |
| 20260905094458 | 23 | 212 | 0.0 | 0.0 | 0.00 | 0.00 | 0.00 | 90 | 1014.5 |
| 20260905093956 | 23 | 211 | 0.0 | 0.0 | 0.00 | 0.00 | 0.00 | 91 | 1014.7 |
| 20260905093452 | 23 | 194 | 0.0 | 0.0 | 0.00 | 0.00 | 0.00 | 91 | 1014.6 |
| 20260905092948 | 23 | 194 | 0.0 | 0.0 | 0.00 | 0.00 | 0.00 | 91 | 1014.5 |
| 20260905092443 | 23 | 196 | 0.0 | 0.0 | 0.00 | 0.00 | 0.00 | 91 | 1014.4 |
| 20260905091939 | 23 | 212 | 0.0 | 1.6 | 0.00 | 0.00 | 0.00 | 93 | 1014.5 |
| 20260905091438 | 23 | 110 | 1.6 | 1.6 | 0.00 | 0.00 | 0.00 | 94 | 1014.4 |
| 20260905090938 | 23 | 113 | 0.0 | 0.0 | 0.00 | 0.00 | 0.00 | 93 | 1014.4 |
| 20260905090433 | 23 | 113 | 0.0 | 0.0 | 0.00 | 0.00 | 0.00 | 93 | 1014.5 |